createdAt,value
2023-02-17T00:02:16.028Z,19.93
2023-02-17T00:04:44.342Z,20.70
2023-02-17T00:07:12.218Z,22.30
2023-02-17T00:09:40.443Z,20.00
2023-02-17T00:12:08.994Z,20.80
2023-02-17T00:14:40.263Z,19.43
2023-02-17T00:17:08.663Z,19.07
2023-02-17T00:19:36.603Z,22.07
2023-02-17T00:22:04.636Z,20.23
2023-02-17T00:24:34.091Z,20.03
2023-02-17T00:27:02.305Z,20.80
2023-02-17T00:29:30.389Z,19.70
2023-02-17T00:32:01.637Z,19.83
2023-02-17T00:34:29.643Z,19.07
2023-02-17T00:36:57.559Z,18.67
2023-02-17T00:39:27.416Z,17.53
2023-02-17T00:41:55.391Z,16.67
2023-02-17T00:44:25.667Z,15.13
2023-02-17T00:46:54.019Z,21.10
2023-02-17T00:49:25.704Z,16.07
2023-02-17T00:51:54.955Z,17.30
2023-02-17T00:54:22.917Z,17.50
2023-02-17T00:56:50.911Z,18.17
2023-02-17T00:59:19.011Z,19.67
2023-02-17T01:01:47.042Z,18.90
2023-02-17T01:04:15.104Z,16.70
2023-02-17T01:06:44.478Z,16.83
2023-02-17T01:09:15.754Z,19.00
2023-02-17T01:11:44.352Z,15.53
2023-02-17T01:14:14.848Z,17.17
2023-02-17T01:16:47.430Z,18.47
2023-02-17T01:19:17.677Z,18.20
2023-02-17T01:21:50.421Z,24.40
2023-02-17T01:24:18.382Z,21.37
2023-02-17T01:26:46.415Z,21.80
2023-02-17T01:29:14.377Z,19.07
2023-02-17T01:31:45.070Z,22.00
2023-02-17T01:34:13.105Z,22.67
2023-02-17T01:36:41.076Z,20.50
2023-02-17T01:39:14.635Z,20.20
2023-02-17T01:41:42.875Z,19.00
2023-02-17T01:44:15.517Z,19.33
2023-02-17T01:46:45.113Z,20.27
2023-02-17T01:49:21.253Z,16.90
2023-02-17T01:51:52.515Z,18.30
2023-02-17T01:54:30.352Z,18.80
2023-02-17T01:57:01.744Z,20.97
2023-02-17T01:59:32.270Z,17.53
2023-02-17T02:02:04.429Z,17.63
2023-02-17T02:04:35.005Z,18.27
2023-02-17T02:07:05.332Z,19.03
2023-02-17T02:09:39.866Z,20.87
2023-02-17T02:12:19.490Z,21.67
2023-02-17T02:14:48.583Z,19.40
2023-02-17T02:17:28.430Z,17.67
2023-02-17T02:20:17.351Z,20.23
2023-02-17T02:23:30.061Z,18.17
2023-02-17T02:26:35.191Z,17.90
2023-02-17T02:29:31.950Z,15.27
2023-02-17T02:32:10.536Z,15.40
2023-02-17T02:34:46.634Z,15.37
2023-02-17T02:37:18.182Z,15.63
2023-02-17T02:39:50.153Z,12.13
2023-02-17T02:42:21.484Z,13.83
2023-02-17T02:44:49.854Z,13.53
2023-02-17T02:47:44.312Z,14.23
2023-02-17T02:50:18.526Z,13.77
2023-02-17T02:53:02.677Z,10.40
2023-02-17T02:55:45.549Z,10.70
2023-02-17T02:58:19.592Z,12.33
2023-02-17T03:00:54.795Z,14.13
2023-02-17T03:03:27.871Z,11.47
2023-02-17T03:06:04.162Z,11.73
2023-02-17T03:08:36.599Z,14.87
2023-02-17T03:11:05.069Z,11.50
2023-02-17T03:13:39.722Z,12.10
2023-02-17T03:16:12.204Z,14.73
2023-02-17T03:18:40.232Z,13.60
2023-02-17T03:21:15.721Z,15.33
2023-02-17T03:23:44.453Z,12.60
2023-02-17T03:26:12.359Z,13.10
2023-02-17T03:28:40.671Z,15.07
2023-02-17T03:31:08.734Z,12.33
2023-02-17T03:33:36.814Z,12.40
2023-02-17T03:36:05.379Z,12.57
2023-02-17T03:38:35.550Z,13.87
2023-02-17T03:41:03.569Z,13.77
2023-02-17T03:43:31.633Z,11.07
2023-02-17T03:45:59.802Z,12.37
2023-02-17T03:48:27.965Z,13.20
2023-02-17T03:50:56.017Z,12.53
2023-02-17T03:53:23.923Z,11.80
2023-02-17T03:55:53.389Z,12.80
2023-02-17T03:58:21.508Z,11.73
2023-02-17T04:00:49.536Z,11.00
2023-02-17T04:03:17.608Z,12.93
2023-02-17T04:05:46.236Z,11.93
2023-02-17T04:08:14.262Z,10.77
2023-02-17T04:10:42.266Z,10.83
2023-02-17T04:13:11.704Z,11.30
2023-02-17T04:15:39.705Z,11.07
2023-02-17T04:18:07.678Z,11.57
2023-02-17T04:20:35.722Z,11.27
2023-02-17T04:23:04.077Z,10.47
2023-02-17T04:25:34.395Z,10.47
2023-02-17T04:28:02.654Z,10.33
2023-02-17T04:30:32.425Z,9.50
2023-02-17T04:33:00.796Z,9.73
2023-02-17T04:35:29.080Z,10.30
2023-02-17T04:37:57.079Z,10.63
2023-02-17T04:40:25.201Z,11.07
2023-02-17T04:42:53.233Z,9.10
2023-02-17T04:45:21.380Z,12.13
2023-02-17T04:47:50.792Z,10.30
2023-02-17T04:50:20.921Z,10.80
2023-02-17T04:52:49.114Z,10.43
2023-02-17T04:55:17.406Z,11.60
2023-02-17T04:57:45.382Z,12.67
2023-02-17T05:00:14.068Z,11.67
2023-02-17T05:02:42.016Z,10.40
2023-02-17T05:05:15.368Z,12.07
2023-02-17T05:07:43.802Z,9.37
2023-02-17T05:10:12.775Z,10.00
2023-02-17T05:12:40.990Z,8.50
2023-02-17T05:15:09.834Z,8.70
2023-02-17T05:17:37.925Z,9.63
2023-02-17T05:20:08.951Z,7.37
2023-02-17T05:22:39.076Z,8.00
2023-02-17T05:25:07.877Z,7.73
2023-02-17T05:27:36.032Z,7.73
2023-02-17T05:30:04.224Z,7.00
2023-02-17T05:32:32.173Z,7.27
2023-02-17T05:35:00.248Z,6.93
2023-02-17T05:37:28.498Z,7.43
2023-02-17T05:39:58.025Z,8.30
2023-02-17T05:42:28.747Z,9.03
2023-02-17T05:44:56.951Z,7.57
2023-02-17T05:47:27.337Z,9.20
2023-02-17T05:49:55.859Z,9.87
2023-02-17T05:52:23.890Z,9.83
2023-02-17T05:54:51.848Z,9.57
2023-02-17T05:57:21.425Z,8.00
2023-02-17T05:59:49.555Z,8.70
2023-02-17T06:02:17.607Z,9.70
2023-02-17T06:04:45.585Z,8.87
2023-02-17T06:07:13.582Z,7.80
2023-02-17T06:09:41.633Z,8.70
2023-02-17T06:12:09.622Z,10.60
2023-02-17T06:14:39.056Z,8.30
2023-02-17T06:17:07.036Z,9.17
2023-02-17T06:19:35.464Z,9.00
2023-02-17T06:22:03.570Z,10.87
2023-02-17T06:24:31.531Z,11.37
2023-02-17T06:26:59.755Z,13.00
2023-02-17T06:29:29.126Z,11.63
2023-02-17T06:31:58.658Z,12.23
2023-02-17T06:34:26.628Z,12.83
2023-02-17T06:36:55.736Z,15.30
2023-02-17T06:39:23.916Z,14.13
2023-02-17T06:41:51.945Z,12.43
2023-02-17T06:44:20.036Z,13.47
2023-02-17T06:46:48.050Z,11.97
2023-02-17T06:49:17.592Z,13.13
2023-02-17T06:51:45.712Z,12.63
2023-02-17T06:54:13.728Z,12.03
2023-02-17T06:56:41.744Z,12.07
2023-02-17T06:59:09.859Z,12.27
2023-02-17T07:01:38.046Z,10.83
2023-02-17T07:04:06.302Z,11.50
2023-02-17T07:06:35.657Z,11.20
2023-02-17T07:09:04.572Z,12.60
2023-02-17T07:11:32.948Z,11.47
2023-02-17T07:14:04.412Z,11.03
2023-02-17T07:16:32.851Z,11.17
2023-02-17T07:19:01.137Z,9.87
2023-02-17T07:21:29.711Z,11.60
2023-02-17T07:23:59.698Z,9.87
2023-02-17T07:26:28.088Z,9.70
2023-02-17T07:28:56.802Z,9.40
2023-02-17T07:31:25.321Z,9.97
2023-02-17T07:33:53.846Z,9.53
2023-02-17T07:36:22.398Z,9.27
2023-02-17T07:38:50.896Z,9.63
2023-02-17T07:41:24.733Z,10.60
2023-02-17T07:43:56.366Z,7.83
2023-02-17T07:46:25.252Z,9.73
2023-02-17T07:48:54.089Z,10.23
2023-02-17T07:51:24.132Z,10.40
2023-02-17T07:53:53.441Z,8.57
2023-02-17T07:56:27.551Z,9.37
2023-02-17T07:58:55.998Z,10.57
2023-02-17T08:01:25.855Z,12.07
2023-02-17T08:03:55.586Z,9.80
2023-02-17T08:06:26.068Z,10.13
2023-02-17T08:09:11.890Z,11.50
2023-02-17T08:12:00.206Z,8.97
2023-02-17T08:14:32.351Z,10.03
2023-02-17T08:17:02.241Z,10.53
2023-02-17T08:19:46.528Z,8.10
2023-02-17T08:22:15.707Z,9.80
2023-02-17T08:24:44.223Z,8.13
2023-02-17T08:27:15.657Z,8.57
2023-02-17T08:29:44.784Z,10.80
2023-02-17T08:32:13.988Z,8.37
2023-02-17T08:34:43.080Z,8.30
2023-02-17T08:37:14.279Z,10.90
2023-02-17T08:39:45.787Z,8.73
2023-02-17T08:42:15.695Z,8.80
2023-02-17T08:44:44.264Z,8.83
2023-02-17T08:47:12.744Z,9.33
2023-02-17T08:49:42.209Z,8.93
2023-02-17T08:52:11.017Z,9.03
2023-02-17T08:54:39.643Z,9.17
2023-02-17T08:57:08.313Z,8.73
2023-02-17T08:59:38.949Z,9.10
2023-02-17T09:02:08.469Z,9.77
2023-02-17T09:04:37.136Z,9.17
2023-02-17T09:07:05.522Z,7.73
2023-02-17T09:09:35.014Z,8.90
2023-02-17T09:12:03.714Z,8.30
2023-02-17T09:14:34.914Z,8.83
2023-02-17T09:17:05.422Z,8.47
2023-02-17T09:19:34.187Z,7.70
2023-02-17T09:22:03.020Z,7.47
2023-02-17T09:24:33.384Z,9.97
2023-02-17T09:27:03.130Z,9.67
2023-02-17T09:29:31.946Z,9.23
2023-02-17T09:32:00.642Z,10.83
2023-02-17T09:34:30.862Z,9.30
2023-02-17T09:37:00.119Z,8.73
2023-02-17T09:39:28.597Z,8.40
2023-02-17T09:41:58.187Z,11.07
2023-02-17T09:44:28.094Z,12.07
2023-02-17T09:47:06.077Z,9.80
2023-02-17T09:49:40.514Z,9.50
2023-02-17T09:52:15.431Z,7.57
2023-02-17T09:54:55.205Z,7.77
2023-02-17T09:57:27.962Z,9.77
2023-02-17T09:59:59.116Z,8.33
2023-02-17T10:02:33.692Z,11.10
2023-02-17T10:05:07.536Z,9.97
2023-02-17T10:07:42.137Z,8.77
2023-02-17T10:10:16.027Z,8.10
2023-02-17T10:12:48.943Z,8.60
2023-02-17T10:15:21.064Z,8.50
2023-02-17T10:17:56.402Z,9.80
2023-02-17T10:20:33.047Z,9.90
2023-02-17T10:23:05.945Z,7.90
2023-02-17T10:26:03.373Z,11.23
2023-02-17T10:28:48.482Z,11.47
2023-02-17T10:31:26.994Z,9.43
2023-02-17T10:34:03.323Z,9.67
2023-02-17T10:36:43.782Z,10.17
2023-02-17T10:39:16.202Z,9.97
2023-02-17T10:41:48.597Z,9.10
2023-02-17T10:44:21.585Z,9.80
2023-02-17T10:46:51.634Z,9.60
2023-02-17T10:49:26.332Z,10.23
2023-02-17T10:51:57.285Z,8.27
2023-02-17T10:54:32.870Z,9.90
2023-02-17T10:57:04.706Z,8.17
2023-02-17T10:59:39.148Z,11.23
2023-02-17T11:02:18.725Z,8.37
2023-02-17T11:04:49.026Z,7.87
2023-02-17T11:07:21.651Z,8.30
2023-02-17T11:09:52.702Z,8.90
2023-02-17T11:12:26.834Z,9.43
2023-02-17T11:14:56.995Z,9.17
2023-02-17T11:17:30.434Z,7.17
2023-02-17T11:20:04.320Z,10.83
2023-02-17T11:22:38.526Z,7.20
2023-02-17T11:25:21.122Z,6.37
2023-02-17T11:27:53.028Z,7.40
2023-02-17T11:30:22.459Z,7.37
2023-02-17T11:32:50.839Z,8.13
2023-02-17T11:35:25.990Z,6.57
2023-02-17T11:38:02.693Z,7.20
2023-02-17T11:40:32.594Z,10.20
2023-02-17T11:43:03.003Z,8.57
2023-02-17T11:45:40.421Z,11.37
2023-02-17T11:48:28.369Z,8.70
2023-02-17T11:51:03.891Z,6.97
2023-02-17T11:53:48.318Z,7.97
2023-02-17T11:56:20.074Z,7.40
2023-02-17T11:59:15.483Z,6.90
2023-02-17T12:02:08.315Z,6.80
2023-02-17T12:04:43.717Z,7.20
2023-02-17T12:07:28.391Z,6.37
2023-02-17T12:10:05.388Z,6.57
2023-02-17T12:12:46.082Z,10.00
2023-02-17T12:15:37.596Z,6.07
2023-02-17T12:18:20.270Z,5.93
2023-02-17T12:20:57.969Z,6.57
2023-02-17T12:23:38.554Z,7.10
2023-02-17T12:26:15.171Z,8.53
2023-02-17T12:28:53.420Z,6.87
2023-02-17T12:31:39.058Z,5.83
2023-02-17T12:34:17.105Z,4.77
2023-02-17T12:36:45.810Z,6.87
2023-02-17T12:39:20.145Z,4.67
2023-02-17T12:41:54.735Z,5.33
2023-02-17T12:44:28.006Z,4.40
2023-02-17T12:46:59.794Z,5.43
2023-02-17T12:49:33.741Z,4.40
2023-02-17T12:52:07.891Z,5.50
2023-02-17T12:54:41.822Z,4.03
2023-02-17T12:57:16.457Z,2.90
2023-02-17T12:59:45.998Z,4.93
2023-02-17T13:02:15.992Z,7.03
2023-02-17T13:04:45.990Z,6.10
2023-02-17T13:07:26.480Z,3.77
2023-02-17T13:09:56.727Z,2.80
2023-02-17T13:12:36.527Z,5.37
2023-02-17T13:15:08.413Z,5.10
2023-02-17T13:17:40.488Z,4.07
2023-02-17T13:20:27.991Z,5.37
2023-02-17T13:23:12.119Z,7.30
2023-02-17T13:25:40.760Z,3.47
2023-02-17T13:28:35.983Z,2.53
2023-02-17T13:31:17.659Z,5.03
2023-02-17T13:33:51.690Z,2.90
2023-02-17T13:36:34.746Z,3.10
2023-02-17T13:39:05.008Z,3.23
2023-02-17T13:41:44.918Z,5.23
2023-02-17T13:44:29.695Z,6.47
2023-02-17T13:47:01.799Z,3.97
2023-02-17T13:49:35.184Z,4.07
2023-02-17T13:52:13.246Z,9.90
2023-02-17T13:54:42.014Z,4.60
2023-02-17T13:57:27.206Z,4.80
2023-02-17T14:00:06.947Z,5.20
2023-02-17T14:02:45.969Z,4.60
2023-02-17T14:05:20.173Z,2.53
2023-02-17T14:07:49.182Z,2.73
2023-02-17T14:10:21.059Z,6.23
2023-02-17T14:12:50.025Z,7.77
2023-02-17T14:15:22.569Z,9.87
2023-02-17T14:17:50.688Z,4.83
2023-02-17T14:20:30.828Z,5.73
2023-02-17T14:23:05.532Z,8.73
2023-02-17T14:25:36.484Z,5.17
2023-02-17T14:28:05.110Z,4.50
2023-02-17T14:30:36.775Z,5.27
2023-02-17T14:33:09.812Z,7.50
2023-02-17T14:35:39.513Z,8.73
2023-02-17T14:38:09.508Z,4.47
2023-02-17T14:40:40.006Z,6.10
2023-02-17T14:43:08.469Z,4.17
2023-02-17T14:45:37.895Z,9.50
2023-02-17T14:48:06.559Z,7.90
2023-02-17T14:50:35.363Z,6.33
2023-02-17T14:53:03.459Z,4.03
2023-02-17T14:55:38.369Z,5.47
2023-02-17T14:58:06.820Z,8.67
2023-02-17T15:00:34.762Z,5.20
2023-02-17T15:03:04.417Z,6.57
2023-02-17T15:05:32.488Z,8.40
2023-02-17T15:08:02.267Z,5.37
2023-02-17T15:10:30.592Z,6.17
2023-02-17T15:12:58.727Z,5.00
2023-02-17T15:15:26.947Z,5.87
2023-02-17T15:17:54.885Z,8.80
2023-02-17T15:20:25.761Z,5.57
2023-02-17T15:22:54.592Z,6.50
2023-02-17T15:25:23.378Z,6.33
2023-02-17T15:27:51.736Z,5.20
2023-02-17T15:30:21.296Z,7.33
2023-02-17T15:32:49.545Z,5.60
2023-02-17T15:35:20.252Z,4.87
2023-02-17T15:37:50.206Z,5.87
2023-02-17T15:40:20.871Z,6.03
2023-02-17T15:42:53.978Z,6.10
2023-02-17T15:45:23.578Z,5.83
2023-02-17T15:47:53.565Z,5.23
2023-02-17T15:50:23.373Z,5.93
2023-02-17T15:52:53.723Z,6.70
2023-02-17T15:55:23.830Z,6.30
2023-02-17T15:57:55.206Z,6.97
2023-02-17T16:00:26.458Z,7.03
2023-02-17T16:02:55.398Z,6.70
2023-02-17T16:05:25.442Z,5.50
2023-02-17T16:07:55.329Z,7.40
2023-02-17T16:10:27.653Z,9.07
2023-02-17T16:12:58.321Z,7.20
2023-02-17T16:15:27.406Z,5.77
2023-02-17T16:17:56.067Z,5.30
2023-02-17T16:20:27.327Z,5.57
2023-02-17T16:22:57.209Z,5.60
2023-02-17T16:25:25.449Z,5.90
2023-02-17T16:27:54.607Z,7.17
2023-02-17T16:30:25.689Z,5.50
2023-02-17T16:32:53.768Z,7.83
2023-02-17T16:35:25.098Z,7.27
2023-02-17T16:37:55.536Z,5.73
2023-02-17T16:40:27.299Z,7.03
2023-02-17T16:42:55.699Z,5.17
2023-02-17T16:45:25.810Z,6.63
2023-02-17T16:47:56.067Z,6.37
2023-02-17T16:50:26.350Z,6.33
2023-02-17T16:52:57.481Z,8.10
2023-02-17T16:55:30.187Z,6.37
2023-02-17T16:57:59.171Z,10.97
2023-02-17T17:00:29.850Z,6.53
2023-02-17T17:02:58.683Z,8.13
2023-02-17T17:05:28.383Z,5.47
2023-02-17T17:07:56.995Z,8.07
2023-02-17T17:10:29.214Z,8.10
2023-02-17T17:12:57.743Z,10.23
2023-02-17T17:15:25.935Z,7.93
2023-02-17T17:17:58.144Z,11.50
2023-02-17T17:20:31.547Z,9.93
2023-02-17T17:23:00.834Z,8.07
2023-02-17T17:25:31.161Z,8.33
2023-02-17T17:27:59.631Z,7.43
2023-02-17T17:30:31.473Z,9.70
2023-02-17T17:32:59.867Z,9.53
2023-02-17T17:35:28.455Z,9.73
2023-02-17T17:37:57.539Z,11.00
2023-02-17T17:40:28.021Z,9.90
2023-02-17T17:42:57.628Z,10.13
2023-02-17T17:45:26.532Z,9.43
2023-02-17T17:47:55.645Z,8.30
2023-02-17T17:50:25.403Z,15.90
2023-02-17T17:52:53.510Z,11.37
2023-02-17T17:55:21.530Z,9.33
2023-02-17T17:57:49.444Z,9.27
2023-02-17T18:00:20.496Z,10.60
2023-02-17T18:02:48.564Z,10.00
2023-02-17T18:05:17.747Z,8.07
2023-02-17T18:07:49.710Z,8.83
2023-02-17T18:10:18.269Z,11.43
2023-02-17T18:12:47.485Z,10.67
2023-02-17T18:15:16.733Z,12.90
2023-02-17T18:17:48.491Z,10.93
2023-02-17T18:20:16.649Z,10.57
2023-02-17T18:22:44.668Z,11.00
2023-02-17T18:25:12.729Z,8.60
2023-02-17T18:27:42.278Z,9.73
2023-02-17T18:30:11.852Z,8.83
2023-02-17T18:32:39.951Z,8.70
2023-02-17T18:35:10.479Z,9.70
2023-02-17T18:37:40.385Z,8.60
2023-02-17T18:40:12.620Z,10.43
2023-02-17T18:42:41.203Z,9.73
2023-02-17T18:45:10.579Z,9.87
2023-02-17T18:47:38.766Z,8.33
2023-02-17T18:50:10.454Z,10.87
2023-02-17T18:52:39.567Z,10.07
2023-02-17T18:55:08.478Z,10.37
2023-02-17T18:57:37.519Z,12.43
2023-02-17T19:00:09.376Z,10.20
2023-02-17T19:02:37.933Z,8.90
2023-02-17T19:05:06.554Z,10.83
2023-02-17T19:07:36.141Z,9.47
2023-02-17T19:10:04.960Z,11.60
2023-02-17T19:12:34.480Z,10.63
2023-02-17T19:15:03.249Z,10.80
2023-02-17T19:17:31.521Z,11.87
2023-02-17T19:20:00.622Z,11.87
2023-02-17T19:22:28.785Z,13.50
2023-02-17T19:24:58.514Z,8.73
2023-02-17T19:27:28.814Z,11.23
2023-02-17T19:29:57.879Z,11.73
2023-02-17T19:32:25.813Z,11.53
2023-02-17T19:34:54.147Z,10.93
2023-02-17T19:37:22.433Z,13.10
2023-02-17T19:39:50.565Z,18.87
2023-02-17T19:42:20.200Z,11.77
2023-02-17T19:44:48.893Z,15.80
2023-02-17T19:47:17.079Z,10.10
2023-02-17T19:49:45.717Z,9.40
2023-02-17T19:52:13.822Z,10.90
2023-02-17T19:54:42.796Z,16.67
2023-02-17T19:57:10.938Z,10.67
2023-02-17T20:11:36.410Z,9.60
2023-02-17T20:14:05.382Z,9.67
2023-02-17T20:16:33.846Z,11.60
2023-02-17T20:19:02.803Z,11.50
2023-02-17T20:21:33.320Z,11.30
2023-02-17T20:24:01.756Z,10.83
2023-02-17T20:26:32.132Z,12.60
2023-02-17T20:29:03.356Z,12.73
2023-02-17T20:31:31.937Z,12.00
2023-02-17T20:34:00.569Z,14.70
2023-02-17T20:36:28.702Z,13.03
2023-02-17T20:38:56.807Z,12.53
2023-02-17T20:41:25.533Z,13.80
2023-02-17T20:43:54.137Z,12.67
2023-02-17T20:46:26.169Z,13.40
2023-02-17T20:48:54.976Z,10.83
2023-02-17T20:51:23.375Z,11.27
2023-02-17T20:53:51.343Z,13.70
2023-02-17T20:56:21.729Z,12.33
2023-02-17T20:58:49.797Z,11.50
2023-02-17T21:01:17.959Z,11.73
2023-02-17T21:03:47.776Z,11.60
2023-02-17T21:06:21.944Z,12.43
2023-02-17T21:08:53.443Z,13.63
2023-02-17T21:11:21.795Z,13.27
2023-02-17T21:13:50.786Z,13.43
2023-02-17T21:16:21.273Z,11.67
2023-02-17T21:18:50.899Z,12.10
2023-02-17T21:21:19.162Z,14.27
2023-02-17T21:23:47.972Z,13.70
2023-02-17T21:26:17.073Z,14.23
2023-02-17T21:28:45.595Z,12.93
2023-02-17T21:31:14.956Z,12.13
2023-02-17T21:33:43.950Z,11.27
2023-02-17T21:36:15.526Z,10.87
2023-02-17T21:38:44.245Z,12.67
2023-02-17T21:41:14.030Z,13.03
2023-02-17T21:43:59.818Z,13.43
2023-02-17T21:46:28.455Z,12.43
2023-02-17T21:48:57.069Z,13.17
2023-02-17T21:51:26.760Z,11.83
2023-02-17T21:53:55.075Z,14.20
2023-02-17T21:56:23.910Z,12.13
2023-02-17T21:58:54.258Z,16.10
2023-02-17T22:01:24.155Z,14.83
2023-02-17T22:03:52.918Z,14.73
2023-02-17T22:06:23.658Z,14.83
2023-02-17T22:08:53.277Z,12.07
2023-02-17T22:11:24.296Z,15.47
2023-02-17T22:13:55.086Z,14.73
2023-02-17T22:16:23.597Z,16.13
2023-02-17T22:18:51.930Z,13.70
2023-02-17T22:21:20.134Z,16.23
2023-02-17T22:23:48.391Z,14.97
2023-02-17T22:26:19.906Z,13.50
2023-02-17T22:28:48.888Z,16.50
2023-02-17T22:31:20.370Z,14.47
2023-02-17T22:33:48.736Z,15.60
2023-02-17T22:36:19.089Z,13.70
2023-02-17T22:38:47.545Z,13.37
2023-02-17T22:41:19.536Z,15.23
2023-02-17T22:43:49.097Z,15.03
2023-02-17T22:46:18.818Z,14.60
2023-02-17T22:48:48.615Z,17.50
2023-02-17T22:51:18.471Z,16.30
2023-02-17T22:53:46.941Z,13.37
2023-02-17T22:56:16.058Z,15.00
2023-02-17T22:58:45.530Z,14.77
2023-02-17T23:01:16.218Z,16.53
2023-02-17T23:03:45.181Z,15.20
2023-02-17T23:06:15.208Z,16.23
2023-02-17T23:08:43.360Z,16.27
2023-02-17T23:11:13.864Z,15.13
2023-02-17T23:13:42.200Z,15.00
2023-02-17T23:16:13.482Z,16.27
2023-02-17T23:18:41.993Z,16.87
2023-02-17T23:21:12.736Z,16.43
2023-02-17T23:23:40.858Z,17.37
2023-02-17T23:26:09.285Z,15.97
2023-02-17T23:28:37.407Z,16.50
2023-02-17T23:31:05.551Z,16.80
2023-02-17T23:33:35.192Z,14.07
2023-02-17T23:36:04.951Z,14.87
2023-02-17T23:38:33.278Z,16.73
2023-02-17T23:41:02.032Z,13.40
2023-02-17T23:43:30.070Z,16.60
2023-02-17T23:45:59.715Z,15.83
2023-02-17T23:48:27.645Z,13.90
2023-02-17T23:51:01.272Z,16.30
2023-02-17T23:53:30.048Z,15.20
2023-02-17T23:56:02.966Z,15.13
2023-02-17T23:58:31.020Z,15.63
